Aérodrome :
LOGIN :

S'inscrire | Disclaimer

   EN    FR    IT 

 










Légende :    VFR   VFR Marginal   IFR   IFR Intensif   IFR Très Intensif
Visi : 
Plafond : 
>= 8 km
>= 3000ft
5 à 8 km
1000 à 3000 ft
1500m à 5 km
500 à 1000 ft
800 à 1500m
200 à 500 ft
< 800m
< 200 ft
Symboles :   Orages  Brouillard  Fortes neiges  Fortes précipitations  Vent > 20 kt
SIGMETs :   Divers  Orages  Givrage  Turbulence  Onde Orograph.  Cendres Volcan.







- Altitude de l'aérodrome : 17 ft
- Code IATA : GRQ


EHGG - Groningen Eelde

DERNIER METAR :
  • 271325Z AUTO 14010KT 090V190 9999 NCD 30/10 Q1016 NOSIG

METARs EXPIRÉS :
  • 271255Z AUTO 16011KT 110V200 9999 NCD 29/10 Q1016 NOSIG
  • 271225Z AUTO 15010KT 100V200 9999 NCD 29/10 Q1017 NOSIG
  • 271155Z AUTO 16012KT 110V200 9999 NCD 29/10 Q1017 NOSIG
  • 271125Z AUTO 14011KT 080V180 9999 NCD 28/10 Q1017 NOSIG
  • 271055Z AUTO 14011KT 080V210 9999 NCD 28/11 Q1017 NOSIG

TAF TAF EHGG
Valide du 27 à 12h jusqu'au 28 à 18h UTC


271108Z 2712/2818 14012KT CAVOK
BECMG 2718/2721 25008KT
PROB30
TEMPO 2801/2810 4000 SHRA TSRA BKN030 SCT060CB
BECMG 2807/2810 22012KT
BECMG 2815/2818 27005KT
Pas de NOTAMs connus pour ce terrain.



MET'MAP, la Météo Aéronautique d'un coup d'oeil ! - Copyright ORBIFLY Décembre 2007 - Disclaimer

ORBIFLY MET'MAP TEAM :

Programmation & Développement : Alexandra Zaïnal
Conception & Développement : Baudouin d'Aumeries
Co-Programmation & Développement : Marc-Olivier Méhu
Soutien technique & logistique : Manuel Goepfert

Contact : metmap@orbifly.com




SOURCES & CREDITS :

   NOAA